首页
METAR-TAF:

METAR-TAF

机场 :

重庆江北国际机场

重庆, 中华人民共和国

纬度: 29-31N, 经度: 106-29E, 海拔: 351米

当前天气观测

该预报发布于29分钟前的02:00 UTC
风速4节,风向南转南东,在南转西南之间变化
温度 30°C
湿度 70%
气压 1005 hPa
能见度10公里或以上
1500米以下无云,无积雨云

METAR: ZUCK 190200Z 15002MPS 080V200 CAVOK 30/24 Q1005 NOSIG

时间: 10:29 (02:29 UTC)

预报

该预报发布于7小时和20分钟前的19:09 UTC
预报有效从19日的 00点(UTC)到 19日的 24点(UTC)
风速6节,风向南转西南
能見度: 6000
散云层高于4000英尺

TAF: ZUCK 181909Z 1900/1924 21003MPS 6000 SCT040 TX34/1907Z TN25/1921Z

超过4000个机场的气象观测和天气预报(METAR&TAF报告)。

可查询的气象台以黄色和红色小点在地图上表示。

将鼠标移到小点上方,可查看气象台名称。

然后点击查看天气观测和预报。

如需切换地图:点击带黑十字的绿色按钮放大地图;点击带横线的绿色按钮缩小地图;或者点击绿色箭头查看邻近地区的地图。


METAR-TAF: